Time;durP1;ratioP1;P1;durP2;ratioP2;P2;SDS_P1;SDS_P2;PMS_P1;PMS_P2;Temp;Humidity;BMP_temperature;BMP_pressure;BME280_temperature;BME280_humidity;BME280_pressure;Samples;Min_cycle;Max_cycle;Signal;HPM_P1;HPM_P2
2021/09/26 00:00:16;;;;;;;15.60;12.80;;;18.40;99.90;;;;;;5074095;28;20206;-80
2021/09/26 00:02:43;;;;;;;14.90;13.18;;;18.30;99.90;;;;;;5073677;28;20214;-81
2021/09/26 00:05:11;;;;;;;16.25;12.85;;;18.10;99.90;;;;;;5073685;28;20205;-80
2021/09/26 00:07:38;;;;;;;14.45;12.82;;;18.00;99.90;;;;;;5073801;28;20202;-77
2021/09/26 00:10:08;;;;;;;16.83;14.80;;;17.90;99.90;;;;;;5073676;28;20327;-81
2021/09/26 00:12:36;;;;;;;18.05;14.90;;;17.90;99.90;;;;;;5074099;28;20202;-78
2021/09/26 00:15:09;;;;;;;15.43;12.60;;;18.00;99.90;;;;;;5073606;28;20264;-76
2021/09/26 00:17:36;;;;;;;16.13;14.50;;;18.10;99.90;;;;;;5073880;28;20255;-78
2021/09/26 00:20:04;;;;;;;17.20;13.20;;;18.20;99.90;;;;;;5073475;28;20214;-80
2021/09/26 00:22:31;;;;;;;15.77;13.40;;;18.20;99.90;;;;;;5073742;28;20240;-79
2021/09/26 00:24:58;;;;;;;16.80;14.05;;;18.10;99.90;;;;;;5073673;28;20669;-80
2021/09/26 00:27:25;;;;;;;14.50;13.00;;;17.80;99.90;;;;;;5073359;28;20731;-78
2021/09/26 00:29:52;;;;;;;15.73;13.80;;;17.80;99.90;;;;;;5073526;28;20234;-80
2021/09/26 00:32:21;;;;;;;17.98;14.63;;;17.70;99.90;;;;;;5073225;28;20206;-80
2021/09/26 00:34:48;;;;;;;15.95;14.30;;;17.80;99.90;;;;;;5073505;28;20259;-80
2021/09/26 00:37:15;;;;;;;16.63;13.95;;;17.90;99.90;;;;;;5059557;28;20206;-80
2021/09/26 00:39:42;;;;;;;14.52;12.95;;;18.00;99.90;;;;;;5073458;28;20206;-80
2021/09/26 00:42:10;;;;;;;16.02;13.98;;;17.90;99.90;;;;;;5072931;28;20206;-78
2021/09/26 00:44:37;;;;;;;15.25;13.40;;;18.00;99.90;;;;;;5073684;28;20206;-82
2021/09/26 00:47:04;;;;;;;15.43;13.80;;;18.00;99.90;;;;;;5072411;28;20738;-79
2021/09/26 00:49:32;;;;;;;18.08;14.63;;;17.80;99.90;;;;;;5071240;28;20713;-79
2021/09/26 00:52:00;;;;;;;15.68;14.02;;;17.70;99.90;;;;;;5073450;28;20206;-80
2021/09/26 00:54:27;;;;;;;16.83;13.75;;;17.60;99.90;;;;;;5059511;28;20202;-80
2021/09/26 00:56:54;;;;;;;17.17;14.57;;;17.50;99.90;;;;;;5073071;28;20206;-80
2021/09/26 00:59:22;;;;;;;20.30;15.85;;;17.60;99.90;;;;;;5073057;28;20214;-80
2021/09/26 01:01:50;;;;;;;15.68;13.80;;;17.50;99.90;;;;;;5072663;28;20214;-79
2021/09/26 01:04:18;;;;;;;15.50;13.48;;;17.50;99.90;;;;;;5072710;28;20210;-80
2021/09/26 01:06:53;;;;;;;14.10;12.70;;;17.50;99.90;;;;;;5072440;28;20645;-81
2021/09/26 01:09:27;;;;;;;15.13;13.52;;;17.50;99.90;;;;;;5072452;28;20233;-81
2021/09/26 01:12:04;;;;;;;16.17;13.80;;;17.40;99.90;;;;;;5072762;28;20206;-80
2021/09/26 01:14:40;;;;;;;20.88;13.30;;;17.30;99.90;;;;;;5072808;28;20259;-79
2021/09/26 01:17:13;;;;;;;14.23;12.75;;;17.30;99.90;;;;;;5072119;28;20202;-79
2021/09/26 01:20:03;;;;;;;17.40;13.95;;;17.30;1.00;;;;;;5072621;28;20248;-81
2021/09/26 01:22:50;;;;;;;16.50;13.52;;;17.40;1.00;;;;;;5072574;28;20665;-81
2021/09/26 01:25:34;;;;;;;16.92;13.30;;;17.30;1.00;;;;;;5072168;28;20202;-82
2021/09/26 01:28:20;;;;;;;15.73;13.68;;;17.40;1.00;;;;;;5061149;28;20616;-82
2021/09/26 01:30:52;;;;;;;16.40;13.27;;;17.40;99.90;;;;;;5072198;28;20202;-82
2021/09/26 01:33:23;;;;;;;16.15;14.65;;;17.40;99.90;;;;;;5072159;28;20271;-82
2021/09/26 01:35:56;;;;;;;15.27;13.63;;;17.40;99.90;;;;;;5072442;28;20203;-83
2021/09/26 01:38:32;;;;;;;15.85;13.50;;;17.40;99.90;;;;;;5072176;28;20210;-81
2021/09/26 01:41:03;;;;;;;16.85;14.10;;;17.40;99.90;;;;;;5072612;28;20225;-80
2021/09/26 01:43:41;;;;;;;14.40;12.00;;;17.30;99.90;;;;;;5072540;28;20256;-80
2021/09/26 01:46:12;;;;;;;14.52;12.75;;;17.40;99.90;;;;;;5071784;28;20206;-80
2021/09/26 01:48:46;;;;;;;17.13;13.63;;;17.40;99.90;;;;;;5072286;28;20287;-80
2021/09/26 01:51:15;;;;;;;15.80;13.48;;;17.40;99.90;;;;;;5071767;28;20709;-80
2021/09/26 01:53:45;;;;;;;16.02;13.98;;;17.30;99.90;;;;;;5072092;28;20202;-81
2021/09/26 01:56:14;;;;;;;16.90;13.38;;;17.30;99.90;;;;;;5071370;28;20260;-80
2021/09/26 01:58:43;;;;;;;15.32;13.23;;;17.40;99.90;;;;;;5071703;28;20206;-81
2021/09/26 02:01:13;;;;;;;14.68;13.10;;;17.40;99.90;;;;;;5071234;28;20256;-80
2021/09/26 02:03:41;;;;;;;16.52;12.90;;;17.40;99.90;;;;;;5072068;28;20241;-82
2021/09/26 02:06:09;;;;;;;14.38;12.07;;;17.40;99.90;;;;;;5071627;28;20252;-82
2021/09/26 02:08:37;;;;;;;14.30;12.35;;;17.30;99.90;;;;;;5071241;28;20222;-80
2021/09/26 02:11:04;;;;;;;14.68;12.23;;;17.30;99.90;;;;;;5071268;28;20203;-80
2021/09/26 02:13:32;;;;;;;14.52;10.80;;;17.30;99.90;;;;;;5071148;28;20260;-80
2021/09/26 02:16:01;;;;;;;14.82;13.32;;;17.20;99.90;;;;;;5072156;28;20263;-80
2021/09/26 02:18:31;;;;;;;17.48;12.80;;;17.30;99.90;;;;;;5072408;28;20210;-86
2021/09/26 02:20:59;;;;;;;15.45;13.45;;;17.30;99.90;;;;;;5072613;28;20252;-86
2021/09/26 02:23:27;;;;;;;18.67;12.73;;;17.30;99.90;;;;;;5071663;28;20206;-85
2021/09/26 02:25:55;;;;;;;13.60;12.20;;;17.30;99.90;;;;;;5071938;28;20213;-84
2021/09/26 02:28:22;;;;;;;20.67;13.18;;;17.30;99.90;;;;;;5070942;28;20268;-85
2021/09/26 02:30:50;;;;;;;18.70;12.77;;;17.30;99.90;;;;;;5071967;28;20206;-85
2021/09/26 02:33:17;;;;;;;14.38;12.88;;;17.40;99.90;;;;;;5071440;28;20252;-85
2021/09/26 02:35:46;;;;;;;17.80;14.20;;;17.40;99.90;;;;;;5071579;28;20206;-85
2021/09/26 02:38:13;;;;;;;19.33;16.25;;;17.30;99.90;;;;;;5071101;28;20279;-83
2021/09/26 02:40:42;;;;;;;19.92;16.02;;;17.30;99.90;;;;;;5070787;28;20681;-82
2021/09/26 02:43:20;;;;;;;17.30;15.50;;;17.30;99.90;;;;;;5070779;28;20255;-82
2021/09/26 02:45:50;;;;;;;17.13;14.98;;;17.30;99.90;;;;;;5070983;28;20267;-83
2021/09/26 02:48:18;;;;;;;17.05;14.52;;;17.30;99.90;;;;;;5070656;28;20752;-82
2021/09/26 02:50:51;;;;;;;17.30;14.27;;;17.30;99.90;;;;;;5070825;28;20233;-83
2021/09/26 02:53:18;;;;;;;15.95;13.70;;;17.30;99.90;;;;;;5070789;28;20289;-83
2021/09/26 02:55:48;;;;;;;21.55;16.10;;;17.30;99.90;;;;;;5070645;28;20648;-83
2021/09/26 02:58:16;;;;;;;16.52;13.98;;;17.30;99.90;;;;;;5070397;28;20673;-82
2021/09/26 03:00:44;;;;;;;17.65;15.75;;;17.30;99.90;;;;;;5070742;28;20213;-84
2021/09/26 03:03:15;;;;;;;17.75;15.68;;;17.40;99.90;;;;;;5070124;28;20250;-83
2021/09/26 03:05:44;;;;;;;16.98;13.13;;;17.40;99.90;;;;;;5071087;28;20202;-83
2021/09/26 03:08:13;;;;;;;18.33;15.13;;;17.50;99.90;;;;;;5070159;28;20280;-84
2021/09/26 03:10:41;;;;;;;18.30;14.95;;;17.50;99.90;;;;;;5070895;28;20716;-84
2021/09/26 03:13:08;;;;;;;16.77;14.95;;;17.40;99.90;;;;;;5070456;28;20209;-86
2021/09/26 03:15:36;;;;;;;18.98;16.83;;;17.40;99.90;;;;;;5070888;28;20205;-85
2021/09/26 03:18:03;;;;;;;22.42;16.73;;;17.40;99.90;;;;;;5070578;28;20263;-81
2021/09/26 03:20:30;;;;;;;20.67;16.02;;;17.40;99.90;;;;;;5070924;28;20271;-85
2021/09/26 03:22:57;;;;;;;22.45;15.27;;;17.40;99.90;;;;;;5071460;28;20210;-85
2021/09/26 03:25:26;;;;;;;17.45;15.45;;;17.40;99.90;;;;;;5070422;28;20202;-83
2021/09/26 03:27:53;;;;;;;19.98;16.15;;;17.40;99.90;;;;;;5070962;28;20213;-88
2021/09/26 03:30:20;;;;;;;17.60;15.45;;;17.50;99.90;;;;;;5070239;28;20229;-87
2021/09/26 03:32:47;;;;;;;18.92;15.88;;;17.40;99.90;;;;;;5077782;28;20668;-80
2021/09/26 03:35:15;;;;;;;17.65;15.35;;;17.40;99.90;;;;;;5077205;28;20214;-85
2021/09/26 03:37:43;;;;;;;19.42;15.18;;;17.40;99.90;;;;;;5071438;28;20206;-89
2021/09/26 03:40:12;;;;;;;16.63;14.13;;;17.30;99.90;;;;;;5070754;28;20619;-87
2021/09/26 03:42:41;;;;;;;20.55;16.60;;;17.20;99.90;;;;;;5070974;28;20256;-88
2021/09/26 03:45:10;;;;;;;21.42;15.82;;;17.10;99.90;;;;;;5070733;28;20210;-88
2021/09/26 03:47:37;;;;;;;23.63;17.13;;;17.10;1.00;;;;;;5071086;28;20259;-88
2021/09/26 03:50:07;;;;;;;19.73;15.48;;;17.10;1.00;;;;;;5070474;28;20279;-86
2021/09/26 03:52:35;;;;;;;19.52;15.50;;;17.20;1.00;;;;;;5070866;28;20632;-87
2021/09/26 03:55:02;;;;;;;17.75;15.05;;;17.20;99.90;;;;;;5070707;28;20248;-87
2021/09/26 03:57:29;;;;;;;18.25;15.80;;;17.30;99.90;;;;;;5070921;28;20201;-87
2021/09/26 03:59:57;;;;;;;19.80;16.55;;;17.30;99.90;;;;;;5070953;28;20206;-85
2021/09/26 04:02:24;;;;;;;19.92;15.75;;;17.40;99.90;;;;;;5070424;28;20214;-86
2021/09/26 04:04:51;;;;;;;17.95;16.13;;;17.40;99.90;;;;;;5070415;28;20214;-84
2021/09/26 04:07:19;;;;;;;17.50;14.80;;;17.30;99.90;;;;;;5070467;28;20218;-86
2021/09/26 04:09:46;;;;;;;19.90;14.98;;;17.30;99.90;;;;;;5070112;28;20295;-85
2021/09/26 04:12:12;;;;;;;18.48;15.05;;;17.30;99.90;;;;;;5070527;28;20263;-85
2021/09/26 04:14:40;;;;;;;18.77;15.63;;;17.20;99.90;;;;;;5070715;28;20206;-85
2021/09/26 04:17:09;;;;;;;21.55;15.05;;;17.10;99.90;;;;;;5070100;28;20209;-85
2021/09/26 04:19:36;;;;;;;19.08;15.13;;;17.20;99.90;;;;;;5070565;28;20210;-87
2021/09/26 04:22:03;;;;;;;18.30;15.43;;;17.20;99.90;;;;;;5070381;28;20259;-79
2021/09/26 04:24:30;;;;;;;18.58;14.25;;;17.30;99.90;;;;;;5070323;28;20624;-88
2021/09/26 04:26:57;;;;;;;20.65;15.27;;;17.30;99.90;;;;;;5070690;28;20206;-87
2021/09/26 04:29:24;;;;;;;19.45;14.77;;;17.20;99.90;;;;;;5070358;28;20716;-81
2021/09/26 04:31:51;;;;;;;19.38;16.25;;;17.10;99.90;;;;;;5073812;28;20264;-83
2021/09/26 04:34:19;;;;;;;19.60;17.58;;;17.00;1.00;;;;;;5074415;28;20206;-89
2021/09/26 04:36:48;;;;;;;18.15;16.17;;;16.90;1.00;;;;;;5075014;28;20206;-89
2021/09/26 04:39:15;;;;;;;20.55;15.57;;;16.90;1.00;;;;;;5073691;28;20206;-90
2021/09/26 04:41:42;;;;;;;24.73;16.80;;;16.80;1.00;;;;;;5074501;28;20681;-90
2021/09/26 04:44:09;;;;;;;18.15;16.13;;;16.80;1.00;;;;;;5073875;28;20213;-87
2021/09/26 04:46:36;;;;;;;17.77;15.77;;;16.80;1.00;;;;;;5074553;28;20630;-90
2021/09/26 04:49:03;;;;;;;17.88;14.63;;;16.80;1.00;;;;;;5073542;28;20206;-79
2021/09/26 04:51:32;;;;;;;17.50;14.85;;;16.80;1.00;;;;;;5074040;28;20206;-84
2021/09/26 04:53:59;;;;;;;22.50;17.42;;;16.70;1.00;;;;;;5073708;28;20677;-86
2021/09/26 04:56:26;;;;;;;20.23;15.40;;;16.60;1.00;;;;;;5073444;28;20676;-84
2021/09/26 04:58:53;;;;;;;18.20;14.75;;;16.60;1.00;;;;;;5073859;28;20206;-80
2021/09/26 05:01:20;;;;;;;20.23;16.23;;;16.60;1.00;;;;;;5072954;28;20278;-88
2021/09/26 05:03:47;;;;;;;21.17;16.70;;;16.70;1.00;;;;;;5073767;28;20206;-83
2021/09/26 05:06:14;;;;;;;20.95;16.40;;;16.60;1.00;;;;;;5072975;28;20251;-86
2021/09/26 05:08:43;;;;;;;21.77;14.90;;;16.50;1.00;;;;;;5073889;28;20206;-81
2021/09/26 05:11:10;;;;;;;18.30;15.85;;;16.50;1.00;;;;;;5080889;28;20297;-78
2021/09/26 05:13:37;;;;;;;17.13;15.32;;;16.50;1.00;;;;;;5078750;28;20252;-89
2021/09/26 05:16:05;;;;;;;16.98;13.90;;;16.60;1.00;;;;;;5073039;28;20260;-81
2021/09/26 05:18:32;;;;;;;19.02;13.88;;;16.60;1.00;;;;;;5076707;28;20205;-78
2021/09/26 05:20:59;;;;;;;19.38;14.68;;;16.60;1.00;;;;;;5073090;28;20568;-81
2021/09/26 05:23:26;;;;;;;21.17;15.15;;;16.60;1.00;;;;;;5073140;28;20213;-84
2021/09/26 05:25:54;;;;;;;18.25;14.70;;;16.60;1.00;;;;;;5072565;28;20210;-84
2021/09/26 05:28:21;;;;;;;19.65;14.02;;;16.60;1.00;;;;;;5072709;28;20662;-89
2021/09/26 05:30:48;;;;;;;17.27;14.40;;;16.60;1.00;;;;;;5073010;28;20222;-85
2021/09/26 05:33:15;;;;;;;17.55;14.45;;;16.60;99.90;;;;;;5072526;28;20210;-85
2021/09/26 05:35:42;;;;;;;14.90;13.32;;;16.60;99.90;;;;;;5072752;28;20202;-90
2021/09/26 05:38:09;;;;;;;16.20;13.35;;;16.50;99.90;;;;;;5072840;28;20218;-90
2021/09/26 05:40:36;;;;;;;20.17;14.88;;;16.50;99.90;;;;;;5072828;28;20210;-84
2021/09/26 05:43:05;;;;;;;20.67;16.30;;;16.50;1.00;;;;;;5071426;28;20203;-81
2021/09/26 05:45:32;;;;;;;19.85;15.50;;;16.50;99.90;;;;;;5072556;28;20206;-85
2021/09/26 05:47:59;;;;;;;16.63;14.90;;;16.50;99.90;;;;;;5072870;28;20709;-81
2021/09/26 05:50:26;;;;;;;21.35;16.00;;;16.50;99.90;;;;;;5071830;28;20276;-83
2021/09/26 05:52:53;;;;;;;18.13;15.48;;;16.40;99.90;;;;;;5066236;28;20206;-84
2021/09/26 05:55:20;;;;;;;17.33;15.05;;;16.40;1.00;;;;;;5070524;28;20210;-78
2021/09/26 05:57:47;;;;;;;17.80;14.07;;;16.30;1.00;;;;;;5070353;28;20256;-79
2021/09/26 06:00:17;;;;;;;18.45;16.20;;;16.50;1.00;;;;;;5071812;28;20267;-84
2021/09/26 06:02:45;;;;;;;18.48;14.82;;;16.80;99.90;;;;;;5071813;28;20221;-83
2021/09/26 06:05:12;;;;;;;18.80;13.32;;;16.90;99.90;;;;;;5071393;28;20252;-83
2021/09/26 06:07:39;;;;;;;15.43;12.82;;;16.90;99.90;;;;;;5072278;28;20267;-86
2021/09/26 06:10:08;;;;;;;15.70;13.93;;;16.90;99.90;;;;;;5071698;28;20322;-88
2021/09/26 06:12:35;;;;;;;15.45;13.80;;;16.90;99.90;;;;;;5072833;28;20207;-88
2021/09/26 06:15:04;;;;;;;16.67;13.52;;;16.90;99.90;;;;;;5072938;28;20260;-87
2021/09/26 06:17:33;;;;;;;20.95;14.85;;;16.80;99.90;;;;;;5074229;28;20212;-90
2021/09/26 06:20:00;;;;;;;16.48;14.77;;;16.60;99.90;;;;;;5073827;28;20271;-91
2021/09/26 06:22:27;;;;;;;16.83;14.27;;;16.60;99.90;;;;;;5073332;28;20259;-84
2021/09/26 06:24:56;;;;;;;15.68;13.52;;;16.70;99.90;;;;;;5071979;28;20252;-86
2021/09/26 06:27:24;;;;;;;17.45;15.60;;;16.70;99.90;;;;;;5071368;28;20206;-85
2021/09/26 06:29:51;;;;;;;18.75;15.82;;;16.60;99.90;;;;;;5071889;28;20214;-85
2021/09/26 06:32:18;;;;;;;16.23;14.07;;;16.60;99.90;;;;;;5071107;28;20202;-83
2021/09/26 06:34:46;;;;;;;17.65;15.27;;;16.70;99.90;;;;;;5071637;28;20350;-80
2021/09/26 06:37:13;;;;;;;18.08;15.55;;;16.70;99.90;;;;;;5071054;28;20202;-83
2021/09/26 06:39:40;;;;;;;19.77;16.05;;;16.70;99.90;;;;;;5071608;28;20256;-86
2021/09/26 06:42:07;;;;;;;19.88;15.35;;;16.70;99.90;;;;;;5070940;28;20622;-83
2021/09/26 06:44:35;;;;;;;19.52;16.27;;;16.70;1.00;;;;;;5071847;28;20202;-84
2021/09/26 06:47:02;;;;;;;19.52;17.13;;;16.70;1.00;;;;;;5073228;28;20210;-87
2021/09/26 06:49:29;;;;;;;20.00;16.40;;;16.80;99.90;;;;;;5075383;28;20229;-83
2021/09/26 06:51:57;;;;;;;20.15;17.02;;;16.80;99.90;;;;;;5070699;28;20230;-80
2021/09/26 06:54:24;;;;;;;20.15;15.93;;;16.90;99.90;;;;;;5070516;28;20256;-84
2021/09/26 06:56:52;;;;;;;21.80;18.10;;;17.10;99.90;;;;;;5071485;28;20210;-85
2021/09/26 06:59:19;;;;;;;23.35;17.23;;;17.10;99.90;;;;;;5070777;28;20217;-85
2021/09/26 07:01:46;;;;;;;24.30;16.88;;;17.20;99.90;;;;;;5071109;28;20703;-86
2021/09/26 07:04:13;;;;;;;19.58;16.63;;;17.30;99.90;;;;;;5071396;28;20202;-86
2021/09/26 07:06:39;;;;;;;20.65;17.75;;;17.40;99.90;;;;;;5071577;28;20252;-89
2021/09/26 07:09:08;;;;;;;20.10;17.45;;;17.40;99.90;;;;;;5071472;28;20206;-88
2021/09/26 07:11:35;;;;;;;22.70;16.20;;;17.80;99.90;;;;;;5072548;28;20230;-87
2021/09/26 07:14:02;;;;;;;17.23;15.48;;;18.20;99.90;;;;;;5069357;28;20214;-78
2021/09/26 07:16:29;;;;;;;17.08;15.32;;;18.50;99.90;;;;;;5070734;28;20264;-84
2021/09/26 07:18:56;;;;;;;20.08;15.63;;;18.70;99.90;;;;;;5071168;28;20206;-84
2021/09/26 07:21:23;;;;;;;19.10;17.20;;;18.60;99.90;;;;;;5069491;28;20206;-82
2021/09/26 07:23:50;;;;;;;19.83;17.70;;;18.90;99.90;;;;;;5070275;28;20213;-83
2021/09/26 07:26:19;;;;;;;18.17;15.43;;;18.80;99.90;;;;;;5070221;28;20267;-83
2021/09/26 07:28:46;;;;;;;17.38;15.57;;;18.40;99.90;;;;;;5070273;28;20319;-83
2021/09/26 07:31:14;;;;;;;18.70;16.63;;;18.20;99.90;;;;;;5069743;28;20272;-80
2021/09/26 07:33:41;;;;;;;20.23;15.32;;;18.10;99.90;;;;;;5069952;28;20206;-80
2021/09/26 07:36:09;;;;;;;19.02;16.08;;;18.00;99.90;;;;;;5069220;28;20252;-80
2021/09/26 07:38:36;;;;;;;18.10;16.15;;;18.10;99.90;;;;;;5064704;28;20238;-79
2021/09/26 07:41:03;;;;;;;18.17;16.27;;;18.10;99.90;;;;;;5067256;28;20627;-80
2021/09/26 07:43:31;;;;;;;19.90;17.77;;;18.00;99.90;;;;;;5069948;28;20467;-81
2021/09/26 07:45:58;;;;;;;18.30;16.40;;;18.30;99.90;;;;;;5069386;28;20247;-80
2021/09/26 07:48:26;;;;;;;18.38;16.25;;;18.50;99.90;;;;;;5068296;28;20201;-83
2021/09/26 07:50:53;;;;;;;18.38;16.50;;;18.50;99.90;;;;;;5067249;28;20276;-83
2021/09/26 07:53:20;;;;;;;17.25;15.43;;;18.60;99.90;;;;;;5067587;28;20203;-85
2021/09/26 07:55:50;;;;;;;19.13;15.55;;;18.70;99.90;;;;;;5068459;28;20255;-84
2021/09/26 07:58:18;;;;;;;16.55;14.75;;;18.80;99.90;;;;;;5069760;28;20665;-85
2021/09/26 08:00:46;;;;;;;20.13;15.98;;;18.70;99.90;;;;;;5068159;28;20209;-82
2021/09/26 08:03:13;;;;;;;17.52;14.98;;;19.10;99.90;;;;;;5062312;28;20202;-82
2021/09/26 08:05:40;;;;;;;18.73;15.80;;;19.30;99.90;;;;;;5071152;28;20205;-83
2021/09/26 08:08:07;;;;;;;17.85;14.60;;;19.60;99.90;;;;;;5071766;28;20635;-85
2021/09/26 08:10:34;;;;;;;18.20;12.95;;;19.50;99.90;;;;;;5074587;28;20279;-86
2021/09/26 08:13:01;;;;;;;14.63;13.13;;;19.60;99.90;;;;;;5059851;28;20270;-85
2021/09/26 08:15:28;;;;;;;14.95;13.57;;;19.80;99.90;;;;;;5061294;28;20198;-88
2021/09/26 08:17:57;;;;;;;17.88;14.45;;;20.20;99.90;;;;;;5073418;28;20210;-84
2021/09/26 08:20:25;;;;;;;14.73;13.27;;;20.70;99.90;;;;;;5073622;28;20586;-84
2021/09/26 08:22:52;;;;;;;17.15;13.00;;;20.70;99.90;;;;;;5072537;28;20677;-79
2021/09/26 08:25:22;;;;;;;13.82;12.57;;;20.90;99.90;;;;;;5072995;28;20299;-79
2021/09/26 08:27:50;;;;;;;12.75;11.48;;;20.90;99.90;;;;;;5073500;28;20309;-80
2021/09/26 08:30:18;;;;;;;15.43;13.25;;;20.70;99.90;;;;;;5072806;28;20290;-80
2021/09/26 08:32:46;;;;;;;14.05;12.57;;;20.40;99.90;;;;;;5072981;28;20205;-81
2021/09/26 08:35:15;;;;;;;12.88;11.55;;;20.40;99.90;;;;;;5072747;28;20670;-80
2021/09/26 08:37:42;;;;;;;14.02;12.80;;;20.30;99.90;;;;;;5073528;28;20565;-80
2021/09/26 08:40:11;;;;;;;13.30;12.00;;;20.30;99.90;;;;;;5072899;28;20215;-79
2021/09/26 08:42:39;;;;;;;11.88;10.68;;;20.60;99.90;;;;;;5073117;28;20210;-80
2021/09/26 08:45:10;;;;;;;11.20;10.10;;;20.80;99.90;;;;;;5072385;28;20267;-80
2021/09/26 08:47:39;;;;;;;12.68;11.48;;;20.90;99.90;;;;;;5073292;28;20627;-80
2021/09/26 08:50:08;;;;;;;13.50;11.57;;;20.90;99.90;;;;;;5072972;28;20216;-80
2021/09/26 08:52:36;;;;;;;14.15;11.98;;;20.80;99.90;;;;;;5073075;28;20234;-80
2021/09/26 08:55:04;;;;;;;11.77;10.00;;;20.80;99.90;;;;;;5072552;28;20730;-78
2021/09/26 08:57:31;;;;;;;12.30;11.13;;;20.60;99.90;;;;;;5073106;28;20639;-79
2021/09/26 08:59:58;;;;;;;13.55;12.15;;;20.50;99.90;;;;;;5073231;28;20264;-80
2021/09/26 09:02:25;;;;;;;12.23;11.13;;;20.50;99.90;;;;;;5072724;28;20278;-80
2021/09/26 09:04:52;;;;;;;13.57;11.13;;;20.50;99.90;;;;;;5073084;28;20251;-78
2021/09/26 09:07:20;;;;;;;12.25;10.45;;;20.60;99.90;;;;;;5072566;28;20206;-77
2021/09/26 09:09:53;;;;;;;13.57;12.32;;;20.70;99.90;;;;;;5072888;28;20201;-80
2021/09/26 09:12:25;;;;;;;14.23;12.73;;;20.70;99.90;;;;;;5072656;28;20299;-79
2021/09/26 09:14:54;;;;;;;11.45;10.35;;;20.90;99.90;;;;;;5072582;28;20267;-80
2021/09/26 09:17:26;;;;;;;13.00;11.70;;;20.80;99.90;;;;;;5071208;28;20271;-78
2021/09/26 09:20:16;;;;;;;13.25;11.88;;;21.00;99.90;;;;;;5072711;28;20289;-81
2021/09/26 09:22:47;;;;;;;11.25;10.13;;;21.10;99.90;;;;;;5072796;28;20210;-81
2021/09/26 09:25:35;;;;;;;13.25;11.95;;;21.20;99.90;;;;;;5072190;28;20210;-81
2021/09/26 09:28:03;;;;;;;14.40;10.50;;;21.20;99.90;;;;;;5072208;28;20249;-75
2021/09/26 09:30:32;;;;;;;12.20;9.13;;;21.20;99.90;;;;;;5072696;28;20665;-79
2021/09/26 09:32:59;;;;;;;11.43;9.88;;;21.20;99.90;;;;;;5072679;28;20230;-80
2021/09/26 09:35:29;;;;;;;11.93;10.32;;;21.30;99.90;;;;;;5072194;28;20271;-82
2021/09/26 09:37:56;;;;;;;11.45;10.35;;;21.60;99.90;;;;;;5072828;28;20254;-81
2021/09/26 09:40:23;;;;;;;8.40;7.35;;;21.70;99.90;;;;;;5071939;28;20659;-82
2021/09/26 09:42:53;;;;;;;10.07;8.70;;;22.20;99.90;;;;;;5072413;28;20214;-82
2021/09/26 09:45:23;;;;;;;9.95;9.05;;;22.50;99.90;;;;;;5071688;28;20207;-77
2021/09/26 09:48:13;;;;;;;10.05;9.15;;;22.30;99.90;;;;;;5072281;28;20733;-80
2021/09/26 09:50:49;;;;;;;10.68;9.57;;;21.90;99.90;;;;;;5069752;28;20232;-81
2021/09/26 09:53:22;;;;;;;12.55;10.27;;;21.80;99.90;;;;;;5071983;28;20259;-79
2021/09/26 09:56:18;;;;;;;9.48;8.60;;;21.90;99.90;;;;;;5071736;28;20202;-82
2021/09/26 09:58:49;;;;;;;10.35;9.23;;;22.40;99.90;;;;;;5070151;28;20210;-83
2021/09/26 10:01:18;;;;;;;9.30;7.72;;;22.60;99.90;;;;;;5071637;28;20279;-80
2021/09/26 10:03:48;;;;;;;9.80;9.00;;;22.30;99.90;;;;;;5072111;28;20252;-79
2021/09/26 10:06:25;;;;;;;11.80;8.05;;;22.20;99.90;;;;;;5071398;28;20264;-82
2021/09/26 10:08:52;;;;;;;9.48;7.80;;;22.00;99.90;;;;;;5071931;28;20216;-82
2021/09/26 10:11:19;;;;;;;9.00;8.20;;;21.80;99.90;;;;;;5071477;28;20283;-83
2021/09/26 10:13:48;;;;;;;9.15;8.20;;;21.60;99.90;;;;;;5057664;28;20211;-82
2021/09/26 10:16:16;;;;;;;10.23;8.52;;;21.40;99.90;;;;;;5071530;28;20554;-83
2021/09/26 10:18:43;;;;;;;9.88;8.80;;;21.10;99.90;;;;;;5071325;28;20288;-75
2021/09/26 10:21:12;;;;;;;9.32;7.80;;;20.80;99.90;;;;;;5071488;28;20206;-84
2021/09/26 10:23:42;;;;;;;10.77;9.50;;;20.60;99.90;;;;;;5071237;28;20731;-83
2021/09/26 10:26:09;;;;;;;8.57;7.78;;;20.40;99.90;;;;;;5071037;28;20301;-83
2021/09/26 10:28:38;;;;;;;9.00;7.93;;;20.40;99.90;;;;;;5070994;28;20259;-80
2021/09/26 10:31:07;;;;;;;9.13;8.23;;;20.40;99.90;;;;;;5071019;28;20279;-80
2021/09/26 10:33:35;;;;;;;10.70;9.43;;;20.40;99.90;;;;;;5071426;28;20205;-76
2021/09/26 10:36:03;;;;;;;11.10;9.82;;;20.40;99.90;;;;;;5071604;28;20214;-81
2021/09/26 10:38:31;;;;;;;12.20;10.98;;;20.40;99.90;;;;;;5071704;28;20585;-83
2021/09/26 10:41:05;;;;;;;12.38;10.07;;;20.50;99.90;;;;;;5071228;28;20260;-82
2021/09/26 10:43:32;;;;;;;13.07;9.18;;;20.50;99.90;;;;;;5071128;28;20221;-82
2021/09/26 10:46:23;;;;;;;11.18;9.10;;;20.60;99.90;;;;;;5071485;28;20663;-83
2021/09/26 10:49:11;;;;;;;9.63;8.68;;;20.60;99.90;;;;;;5070868;28;20263;-84
2021/09/26 10:51:44;;;;;;;12.25;7.97;;;20.70;99.90;;;;;;5070899;28;20226;-83
2021/09/26 10:54:44;;;;;;;9.15;8.18;;;20.90;99.90;;;;;;5070347;28;20263;-84
2021/09/26 10:57:26;;;;;;;9.43;8.52;;;21.10;99.90;;;;;;5048369;28;20203;-84
2021/09/26 10:59:55;;;;;;;9.88;8.75;;;21.60;99.90;;;;;;5048706;28;20253;-85
2021/09/26 11:02:45;;;;;;;7.90;7.15;;;22.00;99.90;;;;;;5060658;28;20602;-84
2021/09/26 11:05:35;;;;;;;7.43;6.72;;;22.40;99.90;;;;;;5070422;28;20209;-84
2021/09/26 11:08:03;;;;;;;7.90;7.18;;;22.20;99.90;;;;;;5070828;28;20210;-80
2021/09/26 11:10:40;;;;;;;9.43;8.48;;;22.00;99.90;;;;;;5070431;28;20202;-75
2021/09/26 11:13:12;;;;;;;9.13;8.23;;;21.90;99.90;;;;;;5069849;28;20270;-82
2021/09/26 11:16:08;;;;;;;8.70;6.32;;;22.10;99.90;;;;;;5070773;28;20202;-83
2021/09/26 11:18:55;;;;;;;7.65;6.97;;;22.30;99.90;;;;;;5070626;28;20206;-83
2021/09/26 11:21:48;;;;;;;8.88;7.28;;;22.40;99.90;;;;;;5070150;28;20750;-81
2021/09/26 11:24:31;;;;;;;7.93;7.20;;;22.30;99.90;;;;;;5058404;28;20206;-73
2021/09/26 11:27:23;;;;;;;7.97;7.28;;;22.20;99.90;;;;;;5070653;28;20203;-81
2021/09/26 11:30:27;;;;;;;8.25;7.45;;;22.40;99.90;;;;;;5070782;28;20233;-84
2021/09/26 11:32:57;;;;;;;7.35;6.72;;;22.50;99.90;;;;;;5060259;28;20230;-84
2021/09/26 11:35:28;;;;;;;8.82;7.95;;;22.30;99.90;;;;;;5070363;28;20206;-84
2021/09/26 11:37:59;;;;;;;8.32;7.45;;;22.10;99.90;;;;;;5070426;28;20210;-84
2021/09/26 11:41:08;;;;;;;10.60;8.30;;;22.20;99.90;;;;;;5070075;28;20288;-87
2021/09/26 11:43:43;;;;;;;9.90;8.07;;;22.50;99.90;;;;;;5071381;28;20210;-89
2021/09/26 11:46:22;;;;;;;8.10;7.30;;;22.60;99.90;;;;;;5058572;28;20263;-84
2021/09/26 11:48:50;;;;;;;8.63;7.82;;;22.80;99.90;;;;;;5072913;28;20285;-83
2021/09/26 11:51:19;;;;;;;10.38;8.18;;;22.40;99.90;;;;;;5071130;28;20672;-86
2021/09/26 11:53:47;;;;;;;8.05;7.25;;;22.50;99.90;;;;;;5071205;28;20214;-80
2021/09/26 11:56:18;;;;;;;8.10;6.93;;;22.90;99.90;;;;;;5072159;28;20210;-79
2021/09/26 11:58:45;;;;;;;7.10;6.40;;;23.30;99.90;;;;;;5070839;28;20210;-88
2021/09/26 12:01:12;;;;;;;9.05;8.13;;;23.40;99.90;;;;;;5070338;28;20267;-84
2021/09/26 12:03:39;;;;;;;6.63;5.97;;;23.20;99.90;;;;;;5070766;28;20283;-77
2021/09/26 12:06:06;;;;;;;6.32;5.75;;;23.00;99.90;;;;;;5068650;28;20259;-78
2021/09/26 12:08:38;;;;;;;5.95;5.43;;;23.20;99.90;;;;;;5069550;28;20248;-78
2021/09/26 12:11:10;;;;;;;6.85;6.30;;;23.20;99.90;;;;;;5069536;28;20210;-83
2021/09/26 12:13:48;;;;;;;5.50;5.00;;;23.40;99.90;;;;;;5069764;28;20230;-82
2021/09/26 12:16:16;;;;;;;4.38;4.05;;;23.60;99.90;;;;;;5069539;28;20205;-85
2021/09/26 12:18:51;;;;;;;6.13;5.07;;;23.60;99.90;;;;;;5069740;28;20206;-80
2021/09/26 12:21:19;;;;;;;5.00;4.60;;;23.70;99.90;;;;;;5069460;28;20201;-79
2021/09/26 12:23:51;;;;;;;4.80;4.38;;;23.70;99.90;;;;;;5069731;28;20206;-81
2021/09/26 12:26:26;;;;;;;5.38;4.88;;;23.80;99.90;;;;;;5069552;28;20240;-83
2021/09/26 12:29:12;;;;;;;4.45;4.05;;;23.90;99.90;;;;;;5070183;28;20295;-86
2021/09/26 12:31:42;;;;;;;4.70;4.03;;;23.80;99.90;;;;;;5063620;28;20209;-89
2021/09/26 12:34:11;;;;;;;4.60;4.20;;;23.70;99.90;;;;;;5070919;28;20209;-89
2021/09/26 12:36:41;;;;;;;4.55;4.15;;;23.90;99.90;;;;;;5070662;28;20202;-86
2021/09/26 12:39:19;;;;;;;4.03;3.58;;;24.00;99.90;;;;;;5069466;28;20670;-89
2021/09/26 12:41:52;;;;;;;7.90;4.43;;;24.10;99.90;;;;;;5070541;28;20206;-81
2021/09/26 12:44:28;;;;;;;3.78;3.47;;;24.10;99.90;;;;;;5069800;28;20293;-86
2021/09/26 12:46:55;;;;;;;6.43;3.60;;;24.20;99.90;;;;;;5070488;28;20618;-88